sensor_id;sensor_type;location;lat;lon;timestamp;P1;durP1;ratioP1;P2;durP2;ratioP2
42420;SDS011;28063;48.140;11.588;2023-05-10T00:00:33;0.63;;;0.57;;
42420;SDS011;28063;48.140;11.588;2023-05-10T00:02:59;0.50;;;0.50;;
42420;SDS011;28063;48.140;11.588;2023-05-10T00:05:24;0.50;;;0.50;;
42420;SDS011;28063;48.140;11.588;2023-05-10T00:07:50;0.40;;;0.40;;
42420;SDS011;28063;48.140;11.588;2023-05-10T00:10:16;1.08;;;0.30;;
42420;SDS011;28063;48.140;11.588;2023-05-10T00:12:41;1.23;;;0.40;;
42420;SDS011;28063;48.140;11.588;2023-05-10T00:15:07;0.75;;;0.38;;
42420;SDS011;28063;48.140;11.588;2023-05-10T00:17:33;0.55;;;0.40;;
42420;SDS011;28063;48.140;11.588;2023-05-10T00:19:59;0.30;;;0.30;;
42420;SDS011;28063;48.140;11.588;2023-05-10T00:22:25;0.45;;;0.40;;
42420;SDS011;28063;48.140;11.588;2023-05-10T00:24:51;0.22;;;0.22;;
42420;SDS011;28063;48.140;11.588;2023-05-10T00:27:16;0.35;;;0.30;;
42420;SDS011;28063;48.140;11.588;2023-05-10T00:29:42;0.20;;;0.20;;
42420;SDS011;28063;48.140;11.588;2023-05-10T00:32:08;0.40;;;0.40;;
42420;SDS011;28063;48.140;11.588;2023-05-10T00:34:33;0.20;;;0.20;;
42420;SDS011;28063;48.140;11.588;2023-05-10T00:36:59;0.50;;;0.50;;
42420;SDS011;28063;48.140;11.588;2023-05-10T00:39:25;0.50;;;0.50;;
42420;SDS011;28063;48.140;11.588;2023-05-10T00:41:51;0.40;;;0.40;;
42420;SDS011;28063;48.140;11.588;2023-05-10T00:44:17;2.50;;;0.65;;
42420;SDS011;28063;48.140;11.588;2023-05-10T00:46:43;0.30;;;0.30;;
42420;SDS011;28063;48.140;11.588;2023-05-10T00:49:09;0.30;;;0.30;;
42420;SDS011;28063;48.140;11.588;2023-05-10T00:51:36;0.20;;;0.20;;
42420;SDS011;28063;48.140;11.588;2023-05-10T00:54:02;0.20;;;0.20;;
42420;SDS011;28063;48.140;11.588;2023-05-10T00:56:28;0.30;;;0.30;;
42420;SDS011;28063;48.140;11.588;2023-05-10T00:58:54;0.20;;;0.20;;
42420;SDS011;28063;48.140;11.588;2023-05-10T01:01:21;0.32;;;0.28;;
42420;SDS011;28063;48.140;11.588;2023-05-10T01:03:47;0.32;;;0.30;;
42420;SDS011;28063;48.140;11.588;2023-05-10T01:06:13;0.20;;;0.20;;
42420;SDS011;28063;48.140;11.588;2023-05-10T01:08:39;1.15;;;0.20;;
42420;SDS011;28063;48.140;11.588;2023-05-10T01:11:05;0.55;;;0.35;;
42420;SDS011;28063;48.140;11.588;2023-05-10T01:13:38;0.30;;;0.30;;
42420;SDS011;28063;48.140;11.588;2023-05-10T01:16:06;0.20;;;0.20;;
42420;SDS011;28063;48.140;11.588;2023-05-10T01:18:35;0.63;;;0.30;;
42420;SDS011;28063;48.140;11.588;2023-05-10T01:24:09;0.30;;;0.30;;
42420;SDS011;28063;48.140;11.588;2023-05-10T01:29:23;0.30;;;0.30;;
42420;SDS011;28063;48.140;11.588;2023-05-10T01:35:16;0.10;;;0.10;;
42420;SDS011;28063;48.140;11.588;2023-05-10T01:38:04;0.45;;;0.20;;
42420;SDS011;28063;48.140;11.588;2023-05-10T01:40:39;0.43;;;0.30;;
42420;SDS011;28063;48.140;11.588;2023-05-10T01:43:17;0.20;;;0.20;;
42420;SDS011;28063;48.140;11.588;2023-05-10T01:45:54;0.17;;;0.17;;
42420;SDS011;28063;48.140;11.588;2023-05-10T01:48:35;0.20;;;0.20;;
42420;SDS011;28063;48.140;11.588;2023-05-10T01:51:08;0.20;;;0.20;;
42420;SDS011;28063;48.140;11.588;2023-05-10T01:53:35;0.10;;;0.10;;
42420;SDS011;28063;48.140;11.588;2023-05-10T01:56:03;0.10;;;0.10;;
42420;SDS011;28063;48.140;11.588;2023-05-10T01:58:30;0.20;;;0.20;;
42420;SDS011;28063;48.140;11.588;2023-05-10T02:00:58;0.10;;;0.10;;
42420;SDS011;28063;48.140;11.588;2023-05-10T02:03:28;0.10;;;0.10;;
42420;SDS011;28063;48.140;11.588;2023-05-10T02:05:56;0.20;;;0.20;;
42420;SDS011;28063;48.140;11.588;2023-05-10T02:08:23;0.10;;;0.10;;
42420;SDS011;28063;48.140;11.588;2023-05-10T02:10:53;0.10;;;0.10;;
42420;SDS011;28063;48.140;11.588;2023-05-10T02:13:21;0.10;;;0.10;;
42420;SDS011;28063;48.140;11.588;2023-05-10T02:15:49;0.10;;;0.10;;
42420;SDS011;28063;48.140;11.588;2023-05-10T02:18:16;0.17;;;0.17;;
42420;SDS011;28063;48.140;11.588;2023-05-10T02:20:44;0.10;;;0.10;;
42420;SDS011;28063;48.140;11.588;2023-05-10T02:23:11;0.20;;;0.20;;
42420;SDS011;28063;48.140;11.588;2023-05-10T02:25:38;0.10;;;0.10;;
42420;SDS011;28063;48.140;11.588;2023-05-10T02:28:06;0.20;;;0.20;;
42420;SDS011;28063;48.140;11.588;2023-05-10T02:30:33;0.30;;;0.30;;
42420;SDS011;28063;48.140;11.588;2023-05-10T02:32:59;0.20;;;0.20;;
42420;SDS011;28063;48.140;11.588;2023-05-10T02:35:27;1.60;;;0.10;;
42420;SDS011;28063;48.140;11.588;2023-05-10T02:37:53;0.15;;;0.15;;
42420;SDS011;28063;48.140;11.588;2023-05-10T02:40:20;0.30;;;0.30;;
42420;SDS011;28063;48.140;11.588;2023-05-10T02:42:47;0.10;;;0.10;;
42420;SDS011;28063;48.140;11.588;2023-05-10T02:45:18;0.10;;;0.10;;
42420;SDS011;28063;48.140;11.588;2023-05-10T02:47:46;0.20;;;0.20;;
42420;SDS011;28063;48.140;11.588;2023-05-10T02:50:13;0.10;;;0.10;;
42420;SDS011;28063;48.140;11.588;2023-05-10T02:52:40;0.10;;;0.10;;
42420;SDS011;28063;48.140;11.588;2023-05-10T02:55:11;0.30;;;0.30;;
42420;SDS011;28063;48.140;11.588;2023-05-10T02:57:45;0.35;;;0.20;;
42420;SDS011;28063;48.140;11.588;2023-05-10T03:00:16;0.15;;;0.15;;
42420;SDS011;28063;48.140;11.588;2023-05-10T03:02:42;0.10;;;0.10;;
42420;SDS011;28063;48.140;11.588;2023-05-10T03:05:08;0.17;;;0.17;;
42420;SDS011;28063;48.140;11.588;2023-05-10T03:07:34;0.35;;;0.10;;
42420;SDS011;28063;48.140;11.588;2023-05-10T03:10:00;0.47;;;0.20;;
42420;SDS011;28063;48.140;11.588;2023-05-10T03:12:31;0.30;;;0.30;;
42420;SDS011;28063;48.140;11.588;2023-05-10T03:20:08;0.65;;;0.30;;
42420;SDS011;28063;48.140;11.588;2023-05-10T03:22:47;0.30;;;0.30;;
42420;SDS011;28063;48.140;11.588;2023-05-10T03:25:16;0.55;;;0.10;;
42420;SDS011;28063;48.140;11.588;2023-05-10T03:27:43;0.25;;;0.25;;
42420;SDS011;28063;48.140;11.588;2023-05-10T03:30:10;1.13;;;0.20;;
42420;SDS011;28063;48.140;11.588;2023-05-10T03:32:37;0.10;;;0.10;;
42420;SDS011;28063;48.140;11.588;2023-05-10T03:35:07;0.73;;;0.10;;
42420;SDS011;28063;48.140;11.588;2023-05-10T03:37:33;0.10;;;0.10;;
42420;SDS011;28063;48.140;11.588;2023-05-10T03:39:59;0.10;;;0.10;;
42420;SDS011;28063;48.140;11.588;2023-05-10T03:42:25;0.40;;;0.10;;
42420;SDS011;28063;48.140;11.588;2023-05-10T03:44:51;0.10;;;0.10;;
42420;SDS011;28063;48.140;11.588;2023-05-10T03:47:16;0.10;;;0.10;;
42420;SDS011;28063;48.140;11.588;2023-05-10T03:49:42;0.10;;;0.10;;
42420;SDS011;28063;48.140;11.588;2023-05-10T03:52:08;0.10;;;0.10;;
42420;SDS011;28063;48.140;11.588;2023-05-10T03:54:33;0.10;;;0.10;;
42420;SDS011;28063;48.140;11.588;2023-05-10T03:56:59;0.63;;;0.20;;
42420;SDS011;28063;48.140;11.588;2023-05-10T03:59:25;0.20;;;0.20;;
42420;SDS011;28063;48.140;11.588;2023-05-10T04:01:51;0.15;;;0.10;;
42420;SDS011;28063;48.140;11.588;2023-05-10T04:04:17;0.15;;;0.10;;
42420;SDS011;28063;48.140;11.588;2023-05-10T04:06:45;0.15;;;0.10;;
42420;SDS011;28063;48.140;11.588;2023-05-10T04:09:11;0.10;;;0.10;;
42420;SDS011;28063;48.140;11.588;2023-05-10T04:11:37;0.10;;;0.10;;
42420;SDS011;28063;48.140;11.588;2023-05-10T04:14:02;0.20;;;0.20;;
42420;SDS011;28063;48.140;11.588;2023-05-10T04:16:28;0.20;;;0.20;;
42420;SDS011;28063;48.140;11.588;2023-05-10T04:18:54;0.30;;;0.20;;
42420;SDS011;28063;48.140;11.588;2023-05-10T04:21:19;0.20;;;0.20;;
42420;SDS011;28063;48.140;11.588;2023-05-10T04:23:45;0.10;;;0.10;;
42420;SDS011;28063;48.140;11.588;2023-05-10T04:26:10;2.60;;;0.25;;
42420;SDS011;28063;48.140;11.588;2023-05-10T04:28:36;0.20;;;0.20;;
42420;SDS011;28063;48.140;11.588;2023-05-10T04:31:03;0.10;;;0.10;;
42420;SDS011;28063;48.140;11.588;2023-05-10T04:33:30;0.10;;;0.10;;
42420;SDS011;28063;48.140;11.588;2023-05-10T04:35:56;0.22;;;0.10;;
42420;SDS011;28063;48.140;11.588;2023-05-10T04:38:21;0.10;;;0.10;;
42420;SDS011;28063;48.140;11.588;2023-05-10T04:40:47;0.25;;;0.25;;
42420;SDS011;28063;48.140;11.588;2023-05-10T04:43:13;0.10;;;0.10;;
42420;SDS011;28063;48.140;11.588;2023-05-10T04:45:38;0.93;;;0.08;;
42420;SDS011;28063;48.140;11.588;2023-05-10T04:48:04;0.28;;;0.10;;
42420;SDS011;28063;48.140;11.588;2023-05-10T04:50:30;0.38;;;0.22;;
42420;SDS011;28063;48.140;11.588;2023-05-10T04:52:56;0.10;;;0.10;;
42420;SDS011;28063;48.140;11.588;2023-05-10T04:55:22;0.55;;;0.20;;
42420;SDS011;28063;48.140;11.588;2023-05-10T04:57:48;0.20;;;0.20;;
42420;SDS011;28063;48.140;11.588;2023-05-10T05:00:13;2.05;;;0.20;;
42420;SDS011;28063;48.140;11.588;2023-05-10T05:02:43;0.55;;;0.38;;
42420;SDS011;28063;48.140;11.588;2023-05-10T05:05:10;0.65;;;0.65;;
42420;SDS011;28063;48.140;11.588;2023-05-10T05:07:36;0.73;;;0.50;;
42420;SDS011;28063;48.140;11.588;2023-05-10T05:10:03;0.85;;;0.40;;
42420;SDS011;28063;48.140;11.588;2023-05-10T05:12:32;0.20;;;0.20;;
42420;SDS011;28063;48.140;11.588;2023-05-10T05:14:58;0.30;;;0.30;;
42420;SDS011;28063;48.140;11.588;2023-05-10T05:17:24;1.35;;;0.40;;
42420;SDS011;28063;48.140;11.588;2023-05-10T05:19:50;0.50;;;0.38;;
42420;SDS011;28063;48.140;11.588;2023-05-10T05:22:16;1.52;;;0.35;;
42420;SDS011;28063;48.140;11.588;2023-05-10T05:24:41;0.20;;;0.20;;
42420;SDS011;28063;48.140;11.588;2023-05-10T05:27:07;2.95;;;0.30;;
42420;SDS011;28063;48.140;11.588;2023-05-10T05:29:33;0.40;;;0.40;;
42420;SDS011;28063;48.140;11.588;2023-05-10T05:31:59;0.47;;;0.43;;
42420;SDS011;28063;48.140;11.588;2023-05-10T05:34:25;0.57;;;0.40;;
42420;SDS011;28063;48.140;11.588;2023-05-10T05:36:50;0.77;;;0.60;;
42420;SDS011;28063;48.140;11.588;2023-05-10T05:39:16;1.35;;;0.60;;
42420;SDS011;28063;48.140;11.588;2023-05-10T05:41:42;0.95;;;0.57;;
42420;SDS011;28063;48.140;11.588;2023-05-10T05:44:08;0.98;;;0.28;;
42420;SDS011;28063;48.140;11.588;2023-05-10T05:46:34;1.48;;;0.30;;
42420;SDS011;28063;48.140;11.588;2023-05-10T05:49:00;0.43;;;0.35;;
42420;SDS011;28063;48.140;11.588;2023-05-10T05:51:26;0.85;;;0.30;;
42420;SDS011;28063;48.140;11.588;2023-05-10T05:53:52;0.82;;;0.35;;
42420;SDS011;28063;48.140;11.588;2023-05-10T05:56:17;0.38;;;0.38;;
42420;SDS011;28063;48.140;11.588;2023-05-10T05:58:49;1.83;;;0.47;;
42420;SDS011;28063;48.140;11.588;2023-05-10T06:01:15;1.02;;;0.30;;
42420;SDS011;28063;48.140;11.588;2023-05-10T06:03:41;3.13;;;0.50;;
42420;SDS011;28063;48.140;11.588;2023-05-10T06:06:07;0.22;;;0.20;;
42420;SDS011;28063;48.140;11.588;2023-05-10T06:08:32;0.45;;;0.38;;
42420;SDS011;28063;48.140;11.588;2023-05-10T06:10:59;0.30;;;0.28;;
42420;SDS011;28063;48.140;11.588;2023-05-10T06:13:25;1.30;;;0.50;;
42420;SDS011;28063;48.140;11.588;2023-05-10T06:15:56;0.28;;;0.28;;
42420;SDS011;28063;48.140;11.588;2023-05-10T06:18:24;0.30;;;0.30;;
42420;SDS011;28063;48.140;11.588;2023-05-10T06:20:50;0.40;;;0.40;;
42420;SDS011;28063;48.140;11.588;2023-05-10T06:23:16;1.42;;;0.50;;
42420;SDS011;28063;48.140;11.588;2023-05-10T06:25:42;0.35;;;0.35;;
42420;SDS011;28063;48.140;11.588;2023-05-10T06:28:08;1.25;;;0.50;;
42420;SDS011;28063;48.140;11.588;2023-05-10T06:30:35;0.80;;;0.80;;
42420;SDS011;28063;48.140;11.588;2023-05-10T06:33:01;1.52;;;0.55;;
42420;SDS011;28063;48.140;11.588;2023-05-10T06:35:27;1.25;;;0.50;;
42420;SDS011;28063;48.140;11.588;2023-05-10T06:37:54;0.30;;;0.30;;
42420;SDS011;28063;48.140;11.588;2023-05-10T06:40:20;0.75;;;0.50;;
42420;SDS011;28063;48.140;11.588;2023-05-10T06:42:46;0.50;;;0.50;;
42420;SDS011;28063;48.140;11.588;2023-05-10T06:45:13;1.23;;;0.30;;
42420;SDS011;28063;48.140;11.588;2023-05-10T06:47:40;0.68;;;0.50;;
42420;SDS011;28063;48.140;11.588;2023-05-10T06:50:06;1.95;;;0.45;;
42420;SDS011;28063;48.140;11.588;2023-05-10T06:52:33;0.57;;;0.50;;
42420;SDS011;28063;48.140;11.588;2023-05-10T06:54:59;0.88;;;0.45;;
42420;SDS011;28063;48.140;11.588;2023-05-10T06:57:25;1.20;;;0.50;;
42420;SDS011;28063;48.140;11.588;2023-05-10T06:59:51;1.08;;;0.40;;
42420;SDS011;28063;48.140;11.588;2023-05-10T07:02:17;1.50;;;0.85;;
42420;SDS011;28063;48.140;11.588;2023-05-10T07:04:43;1.30;;;0.77;;
42420;SDS011;28063;48.140;11.588;2023-05-10T07:07:08;0.73;;;0.30;;
42420;SDS011;28063;48.140;11.588;2023-05-10T07:09:34;0.70;;;0.45;;
42420;SDS011;28063;48.140;11.588;2023-05-10T07:12:00;1.27;;;0.57;;
42420;SDS011;28063;48.140;11.588;2023-05-10T07:14:27;0.68;;;0.40;;
42420;SDS011;28063;48.140;11.588;2023-05-10T07:16:52;0.40;;;0.40;;
42420;SDS011;28063;48.140;11.588;2023-05-10T07:19:18;0.60;;;0.60;;
42420;SDS011;28063;48.140;11.588;2023-05-10T07:21:44;1.70;;;0.77;;
42420;SDS011;28063;48.140;11.588;2023-05-10T07:24:10;0.70;;;0.70;;
42420;SDS011;28063;48.140;11.588;2023-05-10T07:26:36;0.57;;;0.50;;
42420;SDS011;28063;48.140;11.588;2023-05-10T07:29:02;0.57;;;0.50;;
42420;SDS011;28063;48.140;11.588;2023-05-10T07:31:28;0.93;;;0.40;;
42420;SDS011;28063;48.140;11.588;2023-05-10T07:33:53;0.47;;;0.47;;
42420;SDS011;28063;48.140;11.588;2023-05-10T07:36:19;0.40;;;0.40;;
42420;SDS011;28063;48.140;11.588;2023-05-10T07:38:45;2.22;;;0.30;;
42420;SDS011;28063;48.140;11.588;2023-05-10T07:41:11;1.77;;;0.60;;
42420;SDS011;28063;48.140;11.588;2023-05-10T07:43:37;0.40;;;0.40;;
42420;SDS011;28063;48.140;11.588;2023-05-10T07:46:03;0.77;;;0.38;;
42420;SDS011;28063;48.140;11.588;2023-05-10T07:48:29;0.45;;;0.40;;
42420;SDS011;28063;48.140;11.588;2023-05-10T07:50:55;0.70;;;0.40;;
42420;SDS011;28063;48.140;11.588;2023-05-10T07:53:21;0.98;;;0.55;;
42420;SDS011;28063;48.140;11.588;2023-05-10T07:55:50;0.22;;;0.22;;
42420;SDS011;28063;48.140;11.588;2023-05-10T07:58:16;1.58;;;0.65;;
42420;SDS011;28063;48.140;11.588;2023-05-10T08:00:44;0.77;;;0.50;;
42420;SDS011;28063;48.140;11.588;2023-05-10T08:03:10;1.00;;;0.60;;
42420;SDS011;28063;48.140;11.588;2023-05-10T08:05:44;2.63;;;0.55;;
42420;SDS011;28063;48.140;11.588;2023-05-10T08:08:11;2.95;;;0.98;;
42420;SDS011;28063;48.140;11.588;2023-05-10T08:10:43;0.70;;;0.40;;
42420;SDS011;28063;48.140;11.588;2023-05-10T08:13:13;0.85;;;0.50;;
42420;SDS011;28063;48.140;11.588;2023-05-10T08:15:39;0.82;;;0.70;;
42420;SDS011;28063;48.140;11.588;2023-05-10T08:18:07;0.95;;;0.63;;
42420;SDS011;28063;48.140;11.588;2023-05-10T08:20:33;0.77;;;0.47;;
42420;SDS011;28063;48.140;11.588;2023-05-10T08:22:58;1.00;;;0.50;;
42420;SDS011;28063;48.140;11.588;2023-05-10T08:25:24;1.40;;;0.60;;
42420;SDS011;28063;48.140;11.588;2023-05-10T08:27:53;0.70;;;0.50;;
42420;SDS011;28063;48.140;11.588;2023-05-10T08:30:19;1.23;;;0.52;;
42420;SDS011;28063;48.140;11.588;2023-05-10T08:32:45;0.45;;;0.40;;
42420;SDS011;28063;48.140;11.588;2023-05-10T08:35:11;2.55;;;0.40;;
42420;SDS011;28063;48.140;11.588;2023-05-10T08:37:36;2.58;;;0.75;;
42420;SDS011;28063;48.140;11.588;2023-05-10T08:40:03;1.85;;;0.77;;
42420;SDS011;28063;48.140;11.588;2023-05-10T08:42:30;0.43;;;0.43;;
42420;SDS011;28063;48.140;11.588;2023-05-10T08:45:00;0.52;;;0.50;;
42420;SDS011;28063;48.140;11.588;2023-05-10T08:47:27;1.45;;;0.50;;
42420;SDS011;28063;48.140;11.588;2023-05-10T08:49:53;4.10;;;0.38;;
42420;SDS011;28063;48.140;11.588;2023-05-10T08:52:20;0.43;;;0.43;;
42420;SDS011;28063;48.140;11.588;2023-05-10T08:54:50;2.97;;;0.75;;
42420;SDS011;28063;48.140;11.588;2023-05-10T08:57:17;0.30;;;0.30;;
42420;SDS011;28063;48.140;11.588;2023-05-10T08:59:44;1.35;;;0.50;;
42420;SDS011;28063;48.140;11.588;2023-05-10T09:02:11;2.03;;;0.50;;
42420;SDS011;28063;48.140;11.588;2023-05-10T09:04:38;0.68;;;0.55;;
42420;SDS011;28063;48.140;11.588;2023-05-10T09:07:03;0.20;;;0.20;;
42420;SDS011;28063;48.140;11.588;2023-05-10T09:09:29;0.75;;;0.43;;
42420;SDS011;28063;48.140;11.588;2023-05-10T09:11:57;0.75;;;0.38;;
42420;SDS011;28063;48.140;11.588;2023-05-10T09:14:23;1.27;;;0.60;;
42420;SDS011;28063;48.140;11.588;2023-05-10T09:16:49;1.83;;;0.50;;
42420;SDS011;28063;48.140;11.588;2023-05-10T09:19:15;0.82;;;0.70;;
42420;SDS011;28063;48.140;11.588;2023-05-10T09:21:41;2.00;;;0.63;;
42420;SDS011;28063;48.140;11.588;2023-05-10T09:24:08;0.90;;;0.70;;
42420;SDS011;28063;48.140;11.588;2023-05-10T09:26:34;0.30;;;0.30;;
42420;SDS011;28063;48.140;11.588;2023-05-10T09:29:01;3.90;;;0.50;;
42420;SDS011;28063;48.140;11.588;2023-05-10T09:31:46;2.38;;;0.85;;
42420;SDS011;28063;48.140;11.588;2023-05-10T09:34:20;1.23;;;0.50;;
42420;SDS011;28063;48.140;11.588;2023-05-10T09:36:55;1.20;;;0.55;;
42420;SDS011;28063;48.140;11.588;2023-05-10T09:39:32;5.70;;;3.92;;
42420;SDS011;28063;48.140;11.588;2023-05-10T09:41:59;9.80;;;7.88;;
42420;SDS011;28063;48.140;11.588;2023-05-10T09:44:28;13.52;;;12.13;;
42420;SDS011;28063;48.140;11.588;2023-05-10T09:46:55;14.75;;;11.93;;
42420;SDS011;28063;48.140;11.588;2023-05-10T09:49:21;6.25;;;5.75;;
42420;SDS011;28063;48.140;11.588;2023-05-10T09:52:02;3.00;;;2.80;;
42420;SDS011;28063;48.140;11.588;2023-05-10T09:54:30;1.65;;;0.80;;
42420;SDS011;28063;48.140;11.588;2023-05-10T09:56:56;1.60;;;1.20;;
42420;SDS011;28063;48.140;11.588;2023-05-10T09:59:23;1.13;;;1.02;;
42420;SDS011;28063;48.140;11.588;2023-05-10T10:01:57;2.25;;;1.13;;
42420;SDS011;28063;48.140;11.588;2023-05-10T10:04:24;3.55;;;2.95;;
42420;SDS011;28063;48.140;11.588;2023-05-10T10:07:00;2.88;;;2.58;;
42420;SDS011;28063;48.140;11.588;2023-05-10T10:09:28;1.17;;;1.08;;
42420;SDS011;28063;48.140;11.588;2023-05-10T10:11:54;1.15;;;0.90;;
42420;SDS011;28063;48.140;11.588;2023-05-10T10:14:21;0.88;;;0.63;;
42420;SDS011;28063;48.140;11.588;2023-05-10T10:16:49;0.52;;;0.52;;
42420;SDS011;28063;48.140;11.588;2023-05-10T10:19:15;3.40;;;0.60;;
42420;SDS011;28063;48.140;11.588;2023-05-10T10:21:43;2.17;;;0.63;;
42420;SDS011;28063;48.140;11.588;2023-05-10T10:24:09;3.15;;;2.63;;
42420;SDS011;28063;48.140;11.588;2023-05-10T10:26:35;6.53;;;5.65;;
42420;SDS011;28063;48.140;11.588;2023-05-10T10:31:41;9.95;;;7.40;;
42420;SDS011;28063;48.140;11.588;2023-05-10T10:34:27;3.15;;;2.00;;
42420;SDS011;28063;48.140;11.588;2023-05-10T10:36:54;2.88;;;2.28;;
42420;SDS011;28063;48.140;11.588;2023-05-10T10:39:21;1.20;;;1.20;;
42420;SDS011;28063;48.140;11.588;2023-05-10T10:41:53;0.90;;;0.68;;
42420;SDS011;28063;48.140;11.588;2023-05-10T10:54:57;0.40;;;0.40;;
42420;SDS011;28063;48.140;11.588;2023-05-10T10:57:28;0.40;;;0.30;;
42420;SDS011;28063;48.140;11.588;2023-05-10T11:02:51;1.38;;;0.63;;
42420;SDS011;28063;48.140;11.588;2023-05-10T11:07:58;2.17;;;1.08;;
42420;SDS011;28063;48.140;11.588;2023-05-10T11:10:25;2.33;;;1.45;;
42420;SDS011;28063;48.140;11.588;2023-05-10T11:15:28;6.10;;;1.33;;
42420;SDS011;28063;48.140;11.588;2023-05-10T11:17:58;2.33;;;1.17;;
42420;SDS011;28063;48.140;11.588;2023-05-10T11:20:26;1.15;;;0.95;;
42420;SDS011;28063;48.140;11.588;2023-05-10T11:22:58;1.40;;;1.30;;
42420;SDS011;28063;48.140;11.588;2023-05-10T11:25:39;1.00;;;0.90;;
42420;SDS011;28063;48.140;11.588;2023-05-10T11:28:10;0.90;;;0.90;;
42420;SDS011;28063;48.140;11.588;2023-05-10T11:30:39;1.45;;;0.68;;
42420;SDS011;28063;48.140;11.588;2023-05-10T11:33:06;1.48;;;1.30;;
42420;SDS011;28063;48.140;11.588;2023-05-10T11:35:36;1.50;;;1.02;;
42420;SDS011;28063;48.140;11.588;2023-05-10T11:38:07;1.85;;;1.00;;
42420;SDS011;28063;48.140;11.588;2023-05-10T11:40:34;1.75;;;1.20;;
42420;SDS011;28063;48.140;11.588;2023-05-10T11:43:01;1.27;;;0.90;;
42420;SDS011;28063;48.140;11.588;2023-05-10T11:45:28;1.95;;;1.25;;
42420;SDS011;28063;48.140;11.588;2023-05-10T11:47:57;1.52;;;1.17;;
42420;SDS011;28063;48.140;11.588;2023-05-10T11:50:24;3.10;;;1.67;;
42420;SDS011;28063;48.140;11.588;2023-05-10T11:52:59;1.80;;;1.30;;
42420;SDS011;28063;48.140;11.588;2023-05-10T11:55:25;1.27;;;1.10;;
42420;SDS011;28063;48.140;11.588;2023-05-10T11:57:51;0.95;;;0.93;;
42420;SDS011;28063;48.140;11.588;2023-05-10T12:00:18;6.57;;;2.47;;
42420;SDS011;28063;48.140;11.588;2023-05-10T12:02:43;4.40;;;1.30;;
42420;SDS011;28063;48.140;11.588;2023-05-10T12:05:09;2.83;;;1.40;;
42420;SDS011;28063;48.140;11.588;2023-05-10T12:07:36;4.53;;;3.78;;
42420;SDS011;28063;48.140;11.588;2023-05-10T12:10:02;8.30;;;6.03;;
42420;SDS011;28063;48.140;11.588;2023-05-10T12:12:34;13.27;;;7.90;;
42420;SDS011;28063;48.140;11.588;2023-05-10T12:15:02;6.82;;;4.70;;
42420;SDS011;28063;48.140;11.588;2023-05-10T12:17:28;7.43;;;4.18;;
42420;SDS011;28063;48.140;11.588;2023-05-10T12:19:58;4.50;;;2.40;;
42420;SDS011;28063;48.140;11.588;2023-05-10T12:22:37;3.80;;;1.95;;
42420;SDS011;28063;48.140;11.588;2023-05-10T12:25:03;1.38;;;1.33;;
42420;SDS011;28063;48.140;11.588;2023-05-10T12:27:31;1.80;;;1.50;;
42420;SDS011;28063;48.140;11.588;2023-05-10T12:29:59;1.48;;;1.38;;
42420;SDS011;28063;48.140;11.588;2023-05-10T12:32:37;1.25;;;1.15;;
42420;SDS011;28063;48.140;11.588;2023-05-10T12:35:06;0.82;;;0.82;;
42420;SDS011;28063;48.140;11.588;2023-05-10T12:37:32;2.30;;;1.10;;
42420;SDS011;28063;48.140;11.588;2023-05-10T12:40:03;1.35;;;0.90;;
42420;SDS011;28063;48.140;11.588;2023-05-10T12:42:33;1.10;;;1.00;;
42420;SDS011;28063;48.140;11.588;2023-05-10T12:45:00;0.80;;;0.80;;
42420;SDS011;28063;48.140;11.588;2023-05-10T12:47:27;1.27;;;0.73;;
42420;SDS011;28063;48.140;11.588;2023-05-10T12:49:53;0.85;;;0.60;;
42420;SDS011;28063;48.140;11.588;2023-05-10T12:52:19;0.65;;;0.65;;
42420;SDS011;28063;48.140;11.588;2023-05-10T12:54:44;0.63;;;0.55;;
42420;SDS011;28063;48.140;11.588;2023-05-10T12:57:11;3.88;;;0.70;;
42420;SDS011;28063;48.140;11.588;2023-05-10T12:59:36;0.50;;;0.50;;
42420;SDS011;28063;48.140;11.588;2023-05-10T13:02:02;0.70;;;0.50;;
42420;SDS011;28063;48.140;11.588;2023-05-10T13:04:28;2.38;;;0.55;;
42420;SDS011;28063;48.140;11.588;2023-05-10T13:06:54;0.60;;;0.60;;
42420;SDS011;28063;48.140;11.588;2023-05-10T13:09:25;0.55;;;0.55;;
42420;SDS011;28063;48.140;11.588;2023-05-10T13:11:51;1.00;;;0.60;;
42420;SDS011;28063;48.140;11.588;2023-05-10T13:14:19;0.95;;;0.80;;
42420;SDS011;28063;48.140;11.588;2023-05-10T13:16:45;0.98;;;0.90;;
42420;SDS011;28063;48.140;11.588;2023-05-10T13:19:12;1.10;;;0.60;;
42420;SDS011;28063;48.140;11.588;2023-05-10T13:21:38;1.38;;;1.13;;
42420;SDS011;28063;48.140;11.588;2023-05-10T13:24:06;2.55;;;2.00;;
42420;SDS011;28063;48.140;11.588;2023-05-10T13:26:32;3.40;;;2.03;;
42420;SDS011;28063;48.140;11.588;2023-05-10T13:28:57;1.65;;;1.45;;
42420;SDS011;28063;48.140;11.588;2023-05-10T13:31:23;1.38;;;1.27;;
42420;SDS011;28063;48.140;11.588;2023-05-10T13:33:49;1.83;;;1.25;;
42420;SDS011;28063;48.140;11.588;2023-05-10T13:36:15;0.80;;;0.80;;
42420;SDS011;28063;48.140;11.588;2023-05-10T13:38:41;1.55;;;1.00;;
42420;SDS011;28063;48.140;11.588;2023-05-10T13:41:06;0.80;;;0.80;;
42420;SDS011;28063;48.140;11.588;2023-05-10T13:43:32;0.80;;;0.80;;
42420;SDS011;28063;48.140;11.588;2023-05-10T13:45:57;0.60;;;0.60;;
42420;SDS011;28063;48.140;11.588;2023-05-10T13:48:23;0.50;;;0.50;;
42420;SDS011;28063;48.140;11.588;2023-05-10T13:50:49;1.13;;;0.60;;
42420;SDS011;28063;48.140;11.588;2023-05-10T13:53:15;0.50;;;0.50;;
42420;SDS011;28063;48.140;11.588;2023-05-10T13:55:40;0.63;;;0.60;;
42420;SDS011;28063;48.140;11.588;2023-05-10T13:58:06;0.38;;;0.38;;
42420;SDS011;28063;48.140;11.588;2023-05-10T14:00:32;0.50;;;0.50;;
42420;SDS011;28063;48.140;11.588;2023-05-10T14:02:58;0.50;;;0.50;;
42420;SDS011;28063;48.140;11.588;2023-05-10T14:05:23;0.95;;;0.60;;
42420;SDS011;28063;48.140;11.588;2023-05-10T14:07:51;0.70;;;0.70;;
42420;SDS011;28063;48.140;11.588;2023-05-10T14:10:17;1.20;;;0.60;;
42420;SDS011;28063;48.140;11.588;2023-05-10T14:12:43;0.60;;;0.60;;
42420;SDS011;28063;48.140;11.588;2023-05-10T14:15:09;0.60;;;0.43;;
42420;SDS011;28063;48.140;11.588;2023-05-10T14:17:36;0.40;;;0.40;;
42420;SDS011;28063;48.140;11.588;2023-05-10T14:20:02;0.60;;;0.60;;
42420;SDS011;28063;48.140;11.588;2023-05-10T14:22:28;0.80;;;0.80;;
42420;SDS011;28063;48.140;11.588;2023-05-10T14:24:54;1.00;;;0.88;;
42420;SDS011;28063;48.140;11.588;2023-05-10T14:27:20;0.77;;;0.77;;
42420;SDS011;28063;48.140;11.588;2023-05-10T14:29:46;1.27;;;1.05;;
42420;SDS011;28063;48.140;11.588;2023-05-10T14:32:12;1.98;;;0.65;;
42420;SDS011;28063;48.140;11.588;2023-05-10T14:34:38;0.80;;;0.50;;
42420;SDS011;28063;48.140;11.588;2023-05-10T14:37:04;0.90;;;0.90;;
42420;SDS011;28063;48.140;11.588;2023-05-10T14:39:29;0.93;;;0.70;;
42420;SDS011;28063;48.140;11.588;2023-05-10T14:41:55;0.98;;;0.88;;
42420;SDS011;28063;48.140;11.588;2023-05-10T14:44:21;0.70;;;0.70;;
42420;SDS011;28063;48.140;11.588;2023-05-10T14:46:48;0.80;;;0.80;;
42420;SDS011;28063;48.140;11.588;2023-05-10T14:49:14;0.43;;;0.43;;
42420;SDS011;28063;48.140;11.588;2023-05-10T14:51:42;1.83;;;1.13;;
42420;SDS011;28063;48.140;11.588;2023-05-10T14:54:09;1.45;;;0.88;;
42420;SDS011;28063;48.140;11.588;2023-05-10T14:56:35;1.90;;;0.82;;
42420;SDS011;28063;48.140;11.588;2023-05-10T14:59:02;1.77;;;0.60;;
42420;SDS011;28063;48.140;11.588;2023-05-10T15:01:28;0.85;;;0.65;;
42420;SDS011;28063;48.140;11.588;2023-05-10T15:03:54;1.02;;;0.80;;
42420;SDS011;28063;48.140;11.588;2023-05-10T15:06:23;1.00;;;0.65;;
42420;SDS011;28063;48.140;11.588;2023-05-10T15:08:55;0.70;;;0.70;;